createdAt,value
2018-01-05T00:01:14.344Z,695.40
2018-01-05T00:03:41.917Z,381.97
2018-01-05T00:06:09.483Z,205.00
2018-01-05T00:08:37.071Z,270.00
2018-01-05T00:11:04.641Z,285.30
2018-01-05T00:13:32.231Z,431.77
2018-01-05T00:15:59.848Z,565.00
2018-01-05T00:18:27.438Z,375.93
2018-01-05T00:20:55.014Z,395.47
2018-01-05T00:23:22.626Z,296.90
2018-01-05T00:25:50.178Z,308.80
2018-01-05T00:28:17.751Z,449.10
2018-01-05T00:30:45.415Z,457.97
2018-01-05T00:33:12.988Z,409.17
2018-01-05T00:35:40.564Z,431.00
2018-01-05T00:38:08.185Z,458.50
2018-01-05T00:40:35.783Z,444.23
2018-01-05T00:43:03.361Z,604.13
2018-01-05T00:45:30.976Z,386.97
2018-01-05T00:47:58.569Z,520.03
2018-01-05T00:50:26.162Z,396.20
2018-01-05T00:52:53.777Z,445.43
2018-01-05T00:55:21.370Z,589.93
2018-01-05T00:57:48.948Z,395.57
2018-01-05T01:00:16.546Z,437.57
2018-01-05T01:02:44.119Z,426.97
2018-01-05T01:05:11.706Z,526.57
2018-01-05T01:07:39.330Z,360.03
2018-01-05T01:10:06.916Z,338.37
2018-01-05T01:12:34.504Z,351.37
2018-01-05T01:15:02.189Z,385.50
2018-01-05T01:17:29.772Z,533.70
2018-01-05T01:19:57.347Z,373.90
2018-01-05T01:22:24.966Z,448.83
2018-01-05T01:24:52.555Z,331.17
2018-01-05T01:27:20.136Z,358.47
2018-01-05T01:29:47.763Z,244.90
2018-01-05T01:32:15.333Z,354.40
2018-01-05T01:34:42.903Z,309.80
2018-01-05T01:37:10.653Z,401.67
2018-01-05T01:39:38.202Z,313.70
2018-01-05T01:42:05.752Z,312.57
2018-01-05T01:44:33.368Z,322.43
2018-01-05T01:47:01.971Z,449.30
2018-01-05T01:49:29.561Z,470.80
2018-01-05T01:51:57.197Z,343.37
2018-01-05T01:54:24.776Z,421.30
2018-01-05T01:56:52.344Z,356.17
2018-01-05T01:59:19.963Z,449.40
2018-01-05T02:01:47.527Z,463.90
2018-01-05T02:04:15.105Z,237.10
2018-01-05T02:06:42.729Z,346.53
2018-01-05T02:09:10.308Z,432.83
2018-01-05T02:11:37.889Z,487.80
2018-01-05T02:14:05.510Z,501.63
2018-01-05T02:16:33.097Z,454.73
2018-01-05T02:19:00.706Z,246.53
2018-01-05T02:21:28.313Z,305.07
2018-01-05T02:23:56.118Z,255.73
2018-01-05T02:26:23.702Z,375.63
2018-01-05T02:28:51.636Z,333.30
2018-01-05T02:31:19.223Z,231.73
2018-01-05T02:33:46.815Z,200.83
2018-01-05T02:36:14.431Z,214.00
2018-01-05T02:38:42.021Z,215.77
2018-01-05T02:41:09.593Z,212.80
2018-01-05T02:43:37.196Z,230.73
2018-01-05T02:46:04.787Z,329.93
2018-01-05T02:48:32.353Z,187.00
2018-01-05T02:50:59.967Z,143.73
2018-01-05T02:53:27.584Z,254.83
2018-01-05T02:55:55.463Z,342.70
2018-01-05T02:58:23.096Z,165.33
2018-01-05T03:00:50.683Z,180.60
2018-01-05T03:03:18.270Z,273.63
2018-01-05T03:05:45.899Z,183.63
2018-01-05T03:08:13.490Z,407.97
2018-01-05T03:10:41.219Z,128.00
2018-01-05T03:13:08.830Z,290.27
2018-01-05T03:15:36.427Z,246.33
2018-01-05T03:18:04.003Z,220.63
2018-01-05T03:20:31.632Z,163.53
2018-01-05T03:22:59.210Z,373.70
2018-01-05T03:25:26.786Z,307.23
2018-01-05T03:27:54.399Z,211.17
2018-01-05T03:30:21.990Z,226.43
2018-01-05T03:32:49.565Z,251.17
2018-01-05T03:35:17.177Z,220.93
2018-01-05T03:37:44.752Z,204.70
2018-01-05T03:40:12.320Z,270.57
2018-01-05T03:42:39.941Z,215.23
2018-01-05T03:45:07.512Z,184.77
2018-01-05T03:47:35.080Z,141.90
2018-01-05T03:50:02.779Z,152.50
2018-01-05T03:52:30.368Z,140.10
2018-01-05T03:54:57.978Z,167.20
2018-01-05T03:57:25.622Z,192.10
2018-01-05T03:59:53.189Z,163.93
2018-01-05T04:02:20.778Z,173.00
2018-01-05T04:04:48.394Z,175.63
2018-01-05T04:07:15.979Z,132.20
2018-01-05T04:09:43.565Z,144.63
2018-01-05T04:12:11.181Z,129.70
2018-01-05T04:14:38.790Z,147.93
2018-01-05T04:17:06.383Z,184.70
2018-01-05T04:19:34.007Z,235.20
2018-01-05T04:22:01.629Z,193.07
2018-01-05T04:24:29.216Z,182.23
2018-01-05T04:26:56.828Z,361.50
2018-01-05T04:29:24.406Z,257.93
2018-01-05T04:31:51.998Z,393.97
2018-01-05T04:34:19.611Z,207.77
2018-01-05T04:36:47.187Z,226.70
2018-01-05T04:39:14.765Z,228.97
2018-01-05T04:41:42.407Z,165.67
2018-01-05T04:44:09.993Z,199.33
2018-01-05T04:46:37.577Z,229.60
2018-01-05T04:49:05.193Z,232.63
2018-01-05T04:51:32.796Z,250.50
2018-01-05T04:54:00.389Z,236.90
2018-01-05T04:56:28.100Z,177.80
2018-01-05T04:58:55.683Z,288.10
2018-01-05T05:01:23.265Z,157.23
2018-01-05T05:03:50.866Z,159.40
2018-01-05T05:06:18.444Z,145.67
2018-01-05T05:08:46.085Z,126.87
2018-01-05T05:11:13.721Z,156.00
2018-01-05T05:13:41.345Z,127.13
2018-01-05T05:16:09.065Z,131.63
2018-01-05T05:18:36.693Z,134.40
2018-01-05T05:21:04.294Z,151.27
2018-01-05T05:23:31.889Z,161.37
2018-01-05T05:25:59.542Z,129.27
2018-01-05T05:28:27.129Z,172.17
2018-01-05T05:30:54.810Z,147.23
2018-01-05T05:33:22.424Z,143.47
2018-01-05T05:35:49.998Z,142.43
2018-01-05T05:38:17.571Z,136.70
2018-01-05T05:40:45.188Z,141.77
2018-01-05T05:43:12.773Z,175.10
2018-01-05T05:45:40.369Z,138.70
2018-01-05T05:48:07.982Z,130.73
2018-01-05T05:50:35.564Z,132.03
2018-01-05T05:53:03.155Z,122.37
2018-01-05T05:55:30.789Z,126.60
2018-01-05T05:57:58.377Z,110.67
2018-01-05T06:00:25.979Z,125.97
2018-01-05T06:02:53.620Z,74.53
2018-01-05T06:05:21.175Z,89.93
2018-01-05T06:07:48.754Z,105.03
2018-01-05T06:10:16.383Z,150.07
2018-01-05T06:12:43.956Z,169.17
2018-01-05T06:15:11.538Z,192.07
2018-01-05T06:17:39.146Z,196.90
2018-01-05T06:20:06.756Z,185.03
2018-01-05T06:22:34.351Z,191.60
2018-01-05T06:25:01.995Z,221.17
2018-01-05T06:27:29.577Z,216.17
2018-01-05T06:29:57.189Z,219.80
2018-01-05T06:32:24.843Z,285.63
2018-01-05T06:34:52.462Z,229.33
2018-01-05T06:37:20.061Z,202.87
2018-01-05T06:39:47.685Z,196.93
2018-01-05T06:42:15.267Z,183.93
2018-01-05T06:44:42.835Z,201.50
2018-01-05T06:47:10.486Z,166.40
2018-01-05T06:49:38.074Z,193.40
2018-01-05T06:52:05.660Z,155.93
2018-01-05T06:54:33.290Z,129.70
2018-01-05T06:57:00.867Z,143.27
2018-01-05T06:59:28.437Z,143.47
2018-01-05T07:01:56.060Z,118.77
2018-01-05T07:04:23.635Z,138.37
2018-01-05T07:06:51.232Z,122.93
2018-01-05T07:09:18.896Z,102.30
2018-01-05T07:11:46.480Z,101.63
2018-01-05T07:14:14.055Z,100.63
2018-01-05T07:16:41.679Z,118.23
2018-01-05T07:19:09.254Z,104.73
2018-01-05T07:21:36.813Z,98.70
2018-01-05T07:24:04.434Z,56.77
2018-01-05T07:26:32.008Z,44.53
2018-01-05T07:28:59.580Z,43.90
2018-01-05T07:31:27.189Z,59.67
2018-01-05T07:33:54.781Z,54.33
2018-01-05T07:36:22.351Z,60.53
2018-01-05T07:38:50.007Z,57.60
2018-01-05T07:41:17.584Z,57.47
2018-01-05T07:43:45.186Z,44.37
2018-01-05T07:46:12.815Z,58.63
2018-01-05T07:48:40.442Z,71.83
2018-01-05T07:51:08.037Z,81.33
2018-01-05T07:53:35.656Z,76.20
2018-01-05T07:56:03.250Z,68.20
2018-01-05T07:58:30.902Z,84.03
2018-01-05T08:00:58.521Z,65.10
2018-01-05T08:03:26.105Z,72.23
2018-01-05T08:05:53.702Z,69.63
2018-01-05T08:08:21.307Z,69.27
2018-01-05T08:10:48.889Z,65.83
2018-01-05T08:13:16.464Z,70.13
2018-01-05T08:15:44.078Z,70.53
2018-01-05T08:18:11.675Z,77.83
2018-01-05T08:20:39.261Z,69.37
2018-01-05T08:23:06.889Z,77.13
2018-01-05T08:25:34.473Z,85.20
2018-01-05T08:28:02.069Z,81.30
2018-01-05T08:30:29.739Z,61.40
2018-01-05T08:32:57.364Z,70.13
2018-01-05T08:35:24.952Z,61.17
2018-01-05T08:37:52.587Z,102.03
2018-01-05T08:40:20.191Z,78.17
2018-01-05T08:42:47.852Z,52.00
2018-01-05T08:45:15.484Z,77.53
2018-01-05T08:47:43.123Z,60.93
2018-01-05T08:50:10.720Z,69.83
2018-01-05T08:52:38.332Z,70.57
2018-01-05T08:55:05.939Z,50.73
2018-01-05T08:57:33.540Z,62.53
2018-01-05T09:00:01.219Z,50.30
2018-01-05T09:02:28.820Z,62.43
2018-01-05T09:04:56.406Z,49.70
2018-01-05T09:07:24.030Z,68.70
2018-01-05T09:09:51.620Z,74.93
2018-01-05T09:12:19.199Z,60.47
2018-01-05T09:14:46.803Z,59.37
2018-01-05T09:17:14.427Z,54.40
2018-01-05T09:19:42.875Z,52.27
2018-01-05T09:22:10.510Z,53.93
2018-01-05T09:24:38.093Z,49.70
2018-01-05T09:27:05.664Z,46.70
2018-01-05T09:29:33.297Z,48.33
2018-01-05T09:32:02.271Z,37.43
2018-01-05T09:34:29.858Z,21.03
2018-01-05T09:36:57.480Z,33.17
2018-01-05T09:39:25.064Z,29.13
2018-01-05T09:41:52.648Z,23.83
2018-01-05T09:44:20.263Z,26.43
2018-01-05T09:46:47.848Z,23.47
2018-01-05T09:49:15.427Z,35.43
2018-01-05T09:51:43.069Z,41.10
2018-01-05T09:54:10.767Z,28.00
2018-01-05T09:56:38.369Z,31.07
2018-01-05T09:59:05.996Z,30.60
2018-01-05T10:01:33.576Z,25.90
2018-01-05T10:04:01.145Z,29.20
2018-01-05T10:06:28.782Z,27.00
2018-01-05T10:08:56.362Z,20.00
2018-01-05T10:11:23.966Z,24.93
2018-01-05T10:13:51.621Z,29.43
2018-01-05T10:16:19.222Z,24.80
2018-01-05T10:18:46.814Z,28.63
2018-01-05T10:21:14.458Z,14.30
2018-01-05T10:23:42.053Z,15.90
2018-01-05T10:26:09.642Z,14.37
2018-01-05T10:28:37.256Z,27.03
2018-01-05T10:31:04.838Z,16.90
2018-01-05T10:33:32.405Z,25.23
2018-01-05T10:36:00.028Z,14.70
2018-01-05T10:38:27.614Z,9.80
2018-01-05T10:40:55.268Z,16.90
2018-01-05T10:43:22.930Z,9.73
2018-01-05T10:45:50.521Z,17.13
2018-01-05T10:48:18.145Z,6.63
2018-01-05T10:50:45.755Z,13.57
2018-01-05T10:53:13.334Z,9.83
2018-01-05T10:55:40.993Z,24.33
2018-01-05T10:58:08.605Z,10.67
2018-01-05T11:00:36.203Z,11.70
2018-01-05T11:03:03.810Z,16.80
2018-01-05T11:05:31.470Z,12.10
2018-01-05T11:07:59.088Z,15.13
2018-01-05T11:10:26.741Z,19.63
2018-01-05T11:12:54.359Z,15.53
2018-01-05T11:15:21.941Z,14.03
2018-01-05T11:17:49.509Z,14.83
2018-01-05T11:20:17.123Z,17.77
2018-01-05T11:22:44.696Z,12.07
2018-01-05T11:25:12.265Z,14.57
2018-01-05T11:27:39.982Z,6.40
2018-01-05T11:30:07.559Z,11.00
2018-01-05T11:32:35.134Z,9.47
2018-01-05T11:35:02.741Z,6.80
2018-01-05T11:37:30.312Z,13.93
2018-01-05T11:39:57.877Z,14.00
2018-01-05T11:42:25.494Z,20.13
2018-01-05T11:44:53.063Z,23.33
2018-01-05T11:47:20.632Z,8.90
2018-01-05T11:49:48.240Z,13.10
2018-01-05T11:52:15.812Z,12.80
2018-01-05T11:54:43.409Z,16.83
2018-01-05T11:57:11.068Z,10.60
2018-01-05T11:59:38.641Z,37.50
2018-01-05T12:02:06.205Z,15.17
2018-01-05T12:04:33.829Z,21.63
2018-01-05T12:07:01.398Z,14.03
2018-01-05T12:09:28.980Z,22.70
2018-01-05T12:11:56.600Z,33.53
2018-01-05T12:14:24.224Z,25.80
2018-01-05T12:16:51.807Z,25.40
2018-01-05T12:19:19.415Z,20.23
2018-01-05T12:21:47.003Z,26.13
2018-01-05T12:24:14.592Z,29.03
2018-01-05T12:26:42.227Z,15.90
2018-01-05T12:29:09.813Z,11.27
2018-01-05T12:31:37.370Z,5.00
2018-01-05T12:34:04.995Z,8.23
2018-01-05T12:36:32.567Z,4.47
2018-01-05T12:39:00.139Z,14.50
2018-01-05T12:41:27.747Z,26.23
2018-01-05T12:43:55.350Z,10.00
2018-01-05T12:46:22.947Z,22.00
2018-01-05T12:48:50.626Z,24.00
2018-01-05T12:51:18.205Z,11.60
2018-01-05T12:53:45.777Z,12.37
2018-01-05T12:56:13.390Z,17.70
2018-01-05T12:58:41.004Z,16.90
2018-01-05T13:01:08.591Z,24.37
2018-01-05T13:03:36.272Z,20.83
2018-01-05T13:06:03.838Z,22.13
2018-01-05T13:08:31.416Z,39.47
2018-01-05T13:10:59.028Z,13.77
2018-01-05T13:13:26.598Z,21.63
2018-01-05T13:15:54.169Z,26.23
2018-01-05T13:18:21.818Z,42.07
2018-01-05T13:20:49.391Z,65.00
2018-01-05T13:23:16.966Z,38.03
2018-01-05T13:25:44.580Z,43.83
2018-01-05T13:28:12.343Z,33.43
2018-01-05T13:30:39.950Z,30.03
2018-01-05T13:33:07.579Z,31.30
2018-01-05T13:35:35.168Z,29.03
2018-01-05T13:38:02.739Z,36.60
2018-01-05T13:40:30.360Z,36.47
2018-01-05T13:42:57.917Z,30.97
2018-01-05T13:45:25.541Z,36.27
2018-01-05T13:47:53.180Z,36.77
2018-01-05T13:50:20.781Z,48.37
2018-01-05T13:52:48.362Z,38.10
2018-01-05T13:55:15.980Z,24.10
2018-01-05T13:57:43.559Z,47.87
2018-01-05T14:00:11.239Z,43.60
2018-01-05T14:02:38.864Z,65.87
2018-01-05T14:05:06.520Z,37.40
2018-01-05T14:07:35.172Z,65.12
2018-01-05T14:10:02.816Z,45.88
2018-01-05T14:12:30.440Z,43.53
2018-01-05T14:14:58.052Z,37.50
2018-01-05T14:17:26.419Z,53.03
2018-01-05T14:19:53.991Z,37.03
2018-01-05T14:22:21.654Z,82.33
2018-01-05T14:24:49.262Z,55.97
2018-01-05T14:27:16.866Z,46.47
2018-01-05T14:29:44.466Z,53.63
2018-01-05T14:32:12.195Z,67.77
2018-01-05T14:34:39.793Z,68.03
2018-01-05T14:37:07.386Z,66.53
2018-01-05T14:39:35.011Z,59.33
2018-01-05T14:42:02.614Z,98.53
2018-01-05T14:44:30.223Z,133.10
2018-01-05T14:46:57.850Z,111.07
2018-01-05T14:49:25.433Z,68.37
2018-01-05T14:51:53.042Z,72.87
2018-01-05T14:54:20.680Z,68.00
2018-01-05T14:56:48.470Z,55.10
2018-01-05T14:59:16.057Z,47.27
2018-01-05T15:01:43.689Z,60.23
2018-01-05T15:04:11.280Z,59.60
2018-01-05T15:06:38.866Z,54.17
2018-01-05T15:09:06.499Z,73.03
2018-01-05T15:11:34.086Z,82.50
2018-01-05T15:14:01.673Z,73.50
2018-01-05T15:16:29.300Z,49.43
2018-01-05T15:18:56.895Z,40.10
2018-01-05T15:21:24.474Z,36.50
2018-01-05T15:23:52.112Z,94.57
2018-01-05T15:26:19.679Z,80.83
2018-01-05T15:28:47.234Z,65.27
2018-01-05T15:31:14.864Z,57.03
2018-01-05T15:33:42.457Z,71.27
2018-01-05T15:36:10.043Z,62.03
2018-01-05T15:38:37.676Z,56.73
2018-01-05T15:41:05.261Z,71.50
2018-01-05T15:43:32.827Z,56.53
2018-01-05T15:46:00.543Z,68.53
2018-01-05T15:48:28.175Z,98.33
2018-01-05T15:50:55.805Z,130.93
2018-01-05T15:53:23.469Z,111.57
2018-01-05T15:55:51.048Z,91.60
2018-01-05T15:58:18.629Z,74.00
2018-01-05T16:00:46.322Z,205.30
2018-01-05T16:03:13.895Z,106.70
2018-01-05T16:05:41.461Z,81.90
2018-01-05T16:08:09.117Z,148.93
2018-01-05T16:10:36.749Z,101.27
2018-01-05T16:13:04.472Z,102.37
2018-01-05T16:15:32.124Z,103.23
2018-01-05T16:17:59.729Z,82.30
2018-01-05T16:20:27.296Z,94.83
2018-01-05T16:22:54.900Z,44.37
2018-01-05T16:25:22.472Z,82.50
2018-01-05T16:27:50.042Z,73.67
2018-01-05T16:30:17.672Z,82.63
2018-01-05T16:32:45.242Z,96.17
2018-01-05T16:35:12.863Z,89.43
2018-01-05T16:37:40.498Z,72.40
2018-01-05T16:40:08.091Z,79.20
2018-01-05T16:42:35.655Z,81.87
2018-01-05T16:45:03.259Z,74.37
2018-01-05T16:47:30.831Z,82.07
2018-01-05T16:49:58.441Z,67.87
2018-01-05T16:52:26.075Z,67.17
2018-01-05T16:54:53.673Z,74.57
2018-01-05T16:57:21.243Z,58.60
2018-01-05T16:59:48.861Z,55.03
2018-01-05T17:02:16.448Z,66.87
2018-01-05T17:04:44.100Z,70.57
2018-01-05T17:07:11.714Z,83.63
2018-01-05T17:09:39.311Z,70.33
2018-01-05T17:12:06.926Z,75.33
2018-01-05T17:14:34.615Z,82.37
2018-01-05T17:17:02.175Z,61.73
2018-01-05T17:19:29.768Z,69.83
2018-01-05T17:21:57.418Z,56.67
2018-01-05T17:24:24.994Z,66.23
2018-01-05T17:26:52.566Z,53.03
2018-01-05T17:29:20.220Z,50.67
2018-01-05T17:31:47.788Z,52.73
2018-01-05T17:34:15.358Z,39.67
2018-01-05T17:36:42.973Z,32.30
2018-01-05T17:39:10.632Z,42.13
2018-01-05T17:41:38.204Z,41.77
2018-01-05T17:44:05.823Z,59.83
2018-01-05T17:46:33.415Z,50.33
2018-01-05T17:49:01.002Z,47.60
2018-01-05T17:51:28.623Z,69.03
2018-01-05T17:53:56.193Z,49.80
2018-01-05T17:56:23.757Z,42.43
2018-01-05T17:58:51.361Z,38.63
2018-01-05T18:01:18.922Z,36.73
2018-01-05T18:03:46.489Z,28.40
2018-01-05T18:06:14.116Z,38.07
2018-01-05T18:08:41.686Z,38.30
2018-01-05T18:11:09.364Z,33.23
2018-01-05T18:13:37.180Z,41.80
2018-01-05T18:16:04.770Z,58.33
2018-01-05T18:18:32.422Z,43.30
2018-01-05T18:21:00.139Z,34.83
2018-01-05T18:23:27.734Z,41.37
2018-01-05T18:25:55.293Z,35.40
2018-01-05T18:28:22.895Z,37.90
2018-01-05T18:30:50.489Z,36.03
2018-01-05T18:33:18.101Z,41.13
2018-01-05T18:35:45.719Z,33.60
2018-01-05T18:38:13.299Z,41.30
2018-01-05T18:40:40.914Z,48.73
2018-01-05T18:43:08.537Z,42.00
2018-01-05T18:45:36.170Z,38.73
2018-01-05T18:48:03.754Z,30.70
2018-01-05T18:50:31.316Z,34.20
2018-01-05T18:52:58.959Z,30.50
2018-01-05T18:55:26.538Z,33.30
2018-01-05T18:57:54.159Z,39.93
2018-01-05T19:00:21.734Z,29.97
2018-01-05T19:02:49.301Z,28.50
2018-01-05T19:05:16.917Z,37.73
2018-01-05T19:07:44.524Z,32.27
2018-01-05T19:10:12.096Z,41.23
2018-01-05T19:12:39.689Z,48.30
2018-01-05T19:15:07.247Z,45.87
2018-01-05T19:17:34.848Z,39.17
2018-01-05T19:20:02.461Z,37.07
2018-01-05T19:22:30.060Z,72.73
2018-01-05T19:24:57.652Z,38.33
2018-01-05T19:27:25.265Z,56.37
2018-01-05T19:29:52.846Z,36.37
2018-01-05T19:32:20.440Z,59.00
2018-01-05T19:34:48.068Z,116.13
2018-01-05T19:37:15.649Z,62.30
2018-01-05T19:39:43.254Z,58.40
2018-01-05T19:42:10.938Z,66.80
2018-01-05T19:44:38.537Z,88.00
2018-01-05T19:47:06.129Z,49.53
2018-01-05T19:49:33.750Z,61.97
2018-01-05T19:52:01.308Z,91.50
2018-01-05T19:54:28.918Z,167.80
2018-01-05T19:56:56.510Z,152.67
2018-01-05T19:59:24.100Z,172.10
2018-01-05T20:01:51.681Z,108.50
2018-01-05T20:04:19.349Z,129.63
2018-01-05T20:06:46.964Z,114.93
2018-01-05T20:09:14.585Z,110.13
2018-01-05T20:11:42.206Z,88.37
2018-01-05T20:14:09.954Z,146.53
2018-01-05T20:16:37.704Z,96.63
2018-01-05T20:19:06.554Z,65.33
2018-01-05T20:21:34.150Z,57.70
2018-01-05T20:24:02.836Z,93.80
2018-01-05T20:26:34.839Z,79.07
2018-01-05T20:29:06.027Z,59.50
2018-01-05T20:31:33.828Z,54.83
2018-01-05T20:34:01.404Z,44.53
2018-01-05T20:36:28.956Z,91.10
2018-01-05T20:38:56.568Z,91.63
2018-01-05T20:41:24.292Z,103.87
2018-01-05T20:43:51.919Z,93.77
2018-01-05T20:46:19.475Z,99.67
2018-01-05T20:48:47.048Z,108.37
2018-01-05T20:51:14.634Z,69.30
2018-01-05T20:53:42.191Z,90.33
2018-01-05T20:56:09.768Z,75.90
2018-01-05T20:58:37.364Z,58.50
2018-01-05T21:01:04.936Z,59.60
2018-01-05T21:03:32.601Z,76.87
2018-01-05T21:06:00.195Z,74.30
2018-01-05T21:08:27.762Z,150.77
2018-01-05T21:10:55.341Z,95.40
2018-01-05T21:13:22.922Z,79.30
2018-01-05T21:15:50.530Z,77.77
2018-01-05T21:18:18.096Z,71.97
2018-01-05T21:20:45.682Z,70.40
2018-01-05T21:23:13.341Z,84.20
2018-01-05T21:25:41.088Z,63.03
2018-01-05T21:28:08.738Z,70.23
2018-01-05T21:30:36.342Z,57.63
2018-01-05T21:33:03.904Z,57.40
2018-01-05T21:35:31.467Z,62.77
2018-01-05T21:37:59.088Z,45.43
2018-01-05T21:40:26.690Z,47.23
2018-01-05T21:42:54.289Z,62.73
2018-01-05T21:45:21.922Z,52.33
2018-01-05T21:47:49.499Z,56.27
2018-01-05T21:50:17.078Z,61.03
2018-01-05T21:52:44.699Z,78.50
2018-01-05T21:55:12.260Z,106.60
2018-01-05T21:57:39.834Z,77.90
2018-01-05T22:00:07.511Z,84.73
2018-01-05T22:02:35.089Z,96.70
2018-01-05T22:05:02.673Z,69.40
2018-01-05T22:07:30.317Z,117.37
2018-01-05T22:09:57.893Z,129.60
2018-01-05T22:12:25.467Z,61.37
2018-01-05T22:14:53.089Z,77.60
2018-01-05T22:17:20.653Z,63.27
2018-01-05T22:19:48.222Z,55.83
2018-01-05T22:22:15.856Z,58.17
2018-01-05T22:24:43.446Z,69.43
2018-01-05T22:27:11.007Z,65.97
2018-01-05T22:29:38.636Z,51.50
2018-01-05T22:32:06.221Z,51.77
2018-01-05T22:34:33.784Z,48.27
2018-01-05T22:37:01.397Z,55.63
2018-01-05T22:39:28.963Z,60.63
2018-01-05T22:41:56.526Z,56.03
2018-01-05T22:44:24.117Z,51.67
2018-01-05T22:46:51.684Z,44.67
2018-01-05T22:49:19.264Z,71.33
2018-01-05T22:51:46.884Z,49.50
2018-01-05T22:54:14.465Z,57.50
2018-01-05T22:56:42.049Z,50.30
2018-01-05T22:59:09.665Z,45.20
2018-01-05T23:01:37.262Z,37.27
2018-01-05T23:04:04.858Z,52.50
2018-01-05T23:06:32.461Z,38.13
2018-01-05T23:09:00.041Z,38.07
2018-01-05T23:11:27.636Z,39.87
2018-01-05T23:13:55.231Z,38.80
2018-01-05T23:16:22.859Z,40.30
2018-01-05T23:18:50.433Z,53.57
2018-01-05T23:21:18.018Z,89.27
2018-01-05T23:23:45.633Z,130.10
2018-01-05T23:26:13.257Z,123.70
2018-01-05T23:28:40.839Z,115.87
2018-01-05T23:31:08.440Z,97.90
2018-01-05T23:33:36.096Z,82.03
2018-01-05T23:36:03.685Z,73.53
2018-01-05T23:38:31.280Z,66.97
2018-01-05T23:40:58.867Z,75.27
2018-01-05T23:43:26.454Z,92.60
2018-01-05T23:45:54.061Z,55.80
2018-01-05T23:48:21.642Z,67.87
2018-01-05T23:50:49.229Z,118.87
2018-01-05T23:53:16.844Z,86.90
2018-01-05T23:55:44.426Z,147.60
2018-01-05T23:58:12.045Z,100.10
